sensor_id;sensor_type;location;lat;lon;timestamp;P1;durP1;ratioP1;P2;durP2;ratioP2
46080;SDS011;31821;51.880;-0.518;2022-11-04T02:01:03;21.92;;;11.18;;
46080;SDS011;31821;51.880;-0.518;2022-11-04T03:38:41;17.10;;;6.93;;
46080;SDS011;31821;51.880;-0.518;2022-11-04T03:41:35;15.27;;;7.00;;
46080;SDS011;31821;51.880;-0.518;2022-11-04T03:44:39;19.35;;;7.90;;
46080;SDS011;31821;51.880;-0.518;2022-11-04T03:47:33;15.63;;;7.25;;
46080;SDS011;31821;51.880;-0.518;2022-11-04T03:50:31;11.50;;;5.47;;
46080;SDS011;31821;51.880;-0.518;2022-11-04T03:53:19;19.85;;;7.28;;
46080;SDS011;31821;51.880;-0.518;2022-11-04T04:07:34;19.52;;;8.32;;
46080;SDS011;31821;51.880;-0.518;2022-11-04T04:10:18;15.68;;;7.22;;
46080;SDS011;31821;51.880;-0.518;2022-11-04T04:20:19;15.07;;;7.28;;
46080;SDS011;31821;51.880;-0.518;2022-11-04T05:46:55;22.30;;;7.38;;
46080;SDS011;31821;51.880;-0.518;2022-11-04T08:04:01;24.17;;;10.43;;
46080;SDS011;31821;51.880;-0.518;2022-11-04T08:06:28;19.48;;;8.90;;
46080;SDS011;31821;51.880;-0.518;2022-11-04T08:08:56;16.70;;;8.45;;
46080;SDS011;31821;51.880;-0.518;2022-11-04T08:11:23;15.25;;;7.57;;
46080;SDS011;31821;51.880;-0.518;2022-11-04T08:13:49;15.10;;;7.10;;
46080;SDS011;31821;51.880;-0.518;2022-11-04T08:16:16;15.88;;;7.55;;
46080;SDS011;31821;51.880;-0.518;2022-11-04T08:18:47;15.18;;;7.47;;
46080;SDS011;31821;51.880;-0.518;2022-11-04T08:21:14;13.70;;;6.13;;
46080;SDS011;31821;51.880;-0.518;2022-11-04T08:23:40;11.75;;;6.32;;
46080;SDS011;31821;51.880;-0.518;2022-11-04T08:26:06;11.45;;;5.65;;
46080;SDS011;31821;51.880;-0.518;2022-11-04T08:28:39;9.55;;;5.57;;
46080;SDS011;31821;51.880;-0.518;2022-11-04T08:31:10;12.05;;;5.75;;
46080;SDS011;31821;51.880;-0.518;2022-11-04T08:33:40;13.13;;;6.53;;
46080;SDS011;31821;51.880;-0.518;2022-11-04T08:36:07;13.23;;;7.38;;
46080;SDS011;31821;51.880;-0.518;2022-11-04T08:38:39;16.02;;;7.25;;
46080;SDS011;31821;51.880;-0.518;2022-11-04T08:41:05;14.43;;;7.32;;
46080;SDS011;31821;51.880;-0.518;2022-11-04T08:43:32;12.02;;;7.20;;
46080;SDS011;31821;51.880;-0.518;2022-11-04T08:45:59;10.02;;;6.03;;
46080;SDS011;31821;51.880;-0.518;2022-11-04T08:48:28;14.00;;;6.55;;
46080;SDS011;31821;51.880;-0.518;2022-11-04T08:50:56;12.82;;;7.10;;
46080;SDS011;31821;51.880;-0.518;2022-11-04T08:53:30;15.52;;;9.93;;
46080;SDS011;31821;51.880;-0.518;2022-11-04T08:56:07;17.92;;;10.43;;
46080;SDS011;31821;51.880;-0.518;2022-11-04T08:58:41;14.30;;;8.52;;
46080;SDS011;31821;51.880;-0.518;2022-11-04T09:01:23;10.57;;;6.82;;
46080;SDS011;31821;51.880;-0.518;2022-11-04T09:04:12;10.82;;;6.50;;
46080;SDS011;31821;51.880;-0.518;2022-11-04T09:06:51;9.80;;;5.38;;
46080;SDS011;31821;51.880;-0.518;2022-11-04T09:09:30;11.18;;;5.55;;
46080;SDS011;31821;51.880;-0.518;2022-11-04T09:12:37;9.70;;;5.10;;
46080;SDS011;31821;51.880;-0.518;2022-11-04T09:15:09;9.98;;;4.28;;
46080;SDS011;31821;51.880;-0.518;2022-11-04T09:18:03;6.57;;;3.72;;
46080;SDS011;31821;51.880;-0.518;2022-11-04T09:20:30;9.68;;;4.00;;
46080;SDS011;31821;51.880;-0.518;2022-11-04T09:22:58;9.02;;;3.60;;
46080;SDS011;31821;51.880;-0.518;2022-11-04T09:25:24;9.55;;;3.63;;
46080;SDS011;31821;51.880;-0.518;2022-11-04T09:27:50;9.68;;;4.57;;
46080;SDS011;31821;51.880;-0.518;2022-11-04T09:30:16;9.50;;;4.80;;
46080;SDS011;31821;51.880;-0.518;2022-11-04T09:33:03;8.35;;;3.60;;
46080;SDS011;31821;51.880;-0.518;2022-11-04T09:35:30;9.43;;;4.82;;
46080;SDS011;31821;51.880;-0.518;2022-11-04T09:37:55;8.98;;;4.30;;
46080;SDS011;31821;51.880;-0.518;2022-11-04T09:40:24;10.90;;;4.30;;
46080;SDS011;31821;51.880;-0.518;2022-11-04T09:45:18;7.82;;;3.90;;
46080;SDS011;31821;51.880;-0.518;2022-11-04T09:47:54;8.57;;;3.90;;
46080;SDS011;31821;51.880;-0.518;2022-11-04T09:50:26;8.10;;;3.67;;
46080;SDS011;31821;51.880;-0.518;2022-11-04T09:53:05;8.02;;;3.90;;
46080;SDS011;31821;51.880;-0.518;2022-11-04T09:56:03;11.23;;;3.97;;
46080;SDS011;31821;51.880;-0.518;2022-11-04T09:58:50;8.43;;;3.67;;
46080;SDS011;31821;51.880;-0.518;2022-11-04T10:04:01;7.38;;;3.30;;
46080;SDS011;31821;51.880;-0.518;2022-11-04T10:07:00;8.90;;;3.65;;
46080;SDS011;31821;51.880;-0.518;2022-11-04T10:09:52;7.05;;;3.03;;
46080;SDS011;31821;51.880;-0.518;2022-11-04T10:15:12;8.10;;;3.80;;
46080;SDS011;31821;51.880;-0.518;2022-11-04T10:20:54;7.50;;;2.80;;
46080;SDS011;31821;51.880;-0.518;2022-11-04T10:23:31;6.68;;;2.97;;
46080;SDS011;31821;51.880;-0.518;2022-11-04T10:26:17;7.80;;;2.50;;
46080;SDS011;31821;51.880;-0.518;2022-11-04T10:28:54;5.80;;;2.50;;
46080;SDS011;31821;51.880;-0.518;2022-11-04T10:31:25;7.78;;;2.85;;
46080;SDS011;31821;51.880;-0.518;2022-11-04T10:33:53;6.25;;;2.40;;
46080;SDS011;31821;51.880;-0.518;2022-11-04T10:36:24;5.32;;;2.30;;
46080;SDS011;31821;51.880;-0.518;2022-11-04T10:38:51;6.38;;;3.08;;
46080;SDS011;31821;51.880;-0.518;2022-11-04T10:41:32;7.72;;;2.67;;
46080;SDS011;31821;51.880;-0.518;2022-11-04T10:44:03;5.90;;;2.55;;
46080;SDS011;31821;51.880;-0.518;2022-11-04T10:50:01;6.40;;;2.42;;
46080;SDS011;31821;51.880;-0.518;2022-11-04T10:52:36;5.15;;;2.22;;
46080;SDS011;31821;51.880;-0.518;2022-11-04T10:58:11;6.03;;;2.63;;
46080;SDS011;31821;51.880;-0.518;2022-11-04T11:00:42;5.65;;;2.28;;
46080;SDS011;31821;51.880;-0.518;2022-11-04T11:06:13;4.53;;;2.13;;
46080;SDS011;31821;51.880;-0.518;2022-11-04T11:08:48;5.38;;;2.10;;
46080;SDS011;31821;51.880;-0.518;2022-11-04T11:11:15;5.95;;;2.30;;
46080;SDS011;31821;51.880;-0.518;2022-11-04T11:13:59;4.55;;;1.98;;
46080;SDS011;31821;51.880;-0.518;2022-11-04T11:16:25;5.25;;;1.90;;
46080;SDS011;31821;51.880;-0.518;2022-11-04T11:19:07;7.75;;;4.38;;
46080;SDS011;31821;51.880;-0.518;2022-11-04T11:21:44;5.13;;;2.08;;
46080;SDS011;31821;51.880;-0.518;2022-11-04T11:24:15;3.88;;;1.60;;
46080;SDS011;31821;51.880;-0.518;2022-11-04T11:26:44;3.97;;;1.63;;
46080;SDS011;31821;51.880;-0.518;2022-11-04T11:29:17;5.10;;;2.05;;
46080;SDS011;31821;51.880;-0.518;2022-11-04T11:32:25;2.72;;;1.65;;
46080;SDS011;31821;51.880;-0.518;2022-11-04T11:34:57;4.32;;;1.40;;
46080;SDS011;31821;51.880;-0.518;2022-11-04T11:37:26;3.97;;;1.90;;
46080;SDS011;31821;51.880;-0.518;2022-11-04T11:39:55;3.38;;;1.63;;
46080;SDS011;31821;51.880;-0.518;2022-11-04T11:42:23;6.20;;;2.35;;
46080;SDS011;31821;51.880;-0.518;2022-11-04T11:44:53;14.73;;;11.30;;
46080;SDS011;31821;51.880;-0.518;2022-11-04T11:53:11;3.90;;;1.48;;
46080;SDS011;31821;51.880;-0.518;2022-11-04T11:55:46;3.63;;;1.60;;
46080;SDS011;31821;51.880;-0.518;2022-11-04T11:58:31;4.22;;;1.55;;
46080;SDS011;31821;51.880;-0.518;2022-11-04T12:01:17;4.13;;;1.30;;
46080;SDS011;31821;51.880;-0.518;2022-11-04T12:03:49;3.72;;;1.85;;
46080;SDS011;31821;51.880;-0.518;2022-11-04T12:09:26;4.47;;;1.80;;
46080;SDS011;31821;51.880;-0.518;2022-11-04T12:12:29;4.07;;;1.40;;
46080;SDS011;31821;51.880;-0.518;2022-11-04T12:25:06;4.25;;;1.33;;
46080;SDS011;31821;51.880;-0.518;2022-11-04T12:28:30;4.20;;;1.52;;
46080;SDS011;31821;51.880;-0.518;2022-11-04T12:31:44;3.10;;;1.20;;
46080;SDS011;31821;51.880;-0.518;2022-11-04T12:43:05;5.13;;;1.40;;
46080;SDS011;31821;51.880;-0.518;2022-11-04T12:46:08;3.80;;;1.20;;
46080;SDS011;31821;51.880;-0.518;2022-11-04T12:49:01;3.72;;;1.50;;
46080;SDS011;31821;51.880;-0.518;2022-11-04T13:01:06;3.55;;;1.40;;
46080;SDS011;31821;51.880;-0.518;2022-11-04T13:09:12;2.15;;;1.08;;
46080;SDS011;31821;51.880;-0.518;2022-11-04T13:11:48;5.95;;;1.67;;
46080;SDS011;31821;51.880;-0.518;2022-11-04T13:14:27;4.85;;;1.50;;
46080;SDS011;31821;51.880;-0.518;2022-11-04T13:17:04;5.88;;;1.60;;
46080;SDS011;31821;51.880;-0.518;2022-11-04T13:19:48;4.90;;;1.85;;
46080;SDS011;31821;51.880;-0.518;2022-11-04T13:22:28;5.72;;;1.65;;
46080;SDS011;31821;51.880;-0.518;2022-11-04T13:28:11;5.60;;;1.65;;
46080;SDS011;31821;51.880;-0.518;2022-11-04T13:44:36;3.55;;;0.90;;
46080;SDS011;31821;51.880;-0.518;2022-11-04T13:47:20;2.65;;;0.90;;
46080;SDS011;31821;51.880;-0.518;2022-11-04T13:49:56;2.95;;;0.90;;
46080;SDS011;31821;51.880;-0.518;2022-11-04T13:52:35;3.53;;;0.90;;
46080;SDS011;31821;51.880;-0.518;2022-11-04T13:55:20;3.97;;;0.95;;
46080;SDS011;31821;51.880;-0.518;2022-11-04T13:57:56;4.65;;;1.17;;
46080;SDS011;31821;51.880;-0.518;2022-11-04T14:04:58;3.83;;;0.85;;
46080;SDS011;31821;51.880;-0.518;2022-11-04T14:12:30;3.10;;;0.93;;
46080;SDS011;31821;51.880;-0.518;2022-11-04T14:15:04;1.77;;;0.70;;
46080;SDS011;31821;51.880;-0.518;2022-11-04T14:20:30;2.33;;;0.80;;
46080;SDS011;31821;51.880;-0.518;2022-11-04T14:23:00;2.33;;;0.73;;
46080;SDS011;31821;51.880;-0.518;2022-11-04T14:25:53;4.60;;;0.90;;
46080;SDS011;31821;51.880;-0.518;2022-11-04T14:29:18;1.50;;;0.60;;
46080;SDS011;31821;51.880;-0.518;2022-11-04T14:32:47;2.20;;;0.82;;
46080;SDS011;31821;51.880;-0.518;2022-11-04T14:35:39;3.22;;;0.80;;
46080;SDS011;31821;51.880;-0.518;2022-11-04T14:38:27;2.90;;;0.80;;
46080;SDS011;31821;51.880;-0.518;2022-11-04T14:43:44;4.25;;;1.15;;
46080;SDS011;31821;51.880;-0.518;2022-11-04T14:50:31;2.83;;;0.80;;
46080;SDS011;31821;51.880;-0.518;2022-11-04T14:53:00;4.97;;;1.00;;
46080;SDS011;31821;51.880;-0.518;2022-11-04T14:55:36;3.20;;;0.88;;
46080;SDS011;31821;51.880;-0.518;2022-11-04T14:58:22;4.03;;;0.60;;
46080;SDS011;31821;51.880;-0.518;2022-11-04T15:01:02;3.15;;;0.77;;
46080;SDS011;31821;51.880;-0.518;2022-11-04T15:03:45;2.90;;;0.80;;
46080;SDS011;31821;51.880;-0.518;2022-11-04T15:06:24;1.88;;;0.68;;
46080;SDS011;31821;51.880;-0.518;2022-11-04T15:08:52;2.08;;;0.80;;
46080;SDS011;31821;51.880;-0.518;2022-11-04T15:11:24;5.25;;;0.70;;
46080;SDS011;31821;51.880;-0.518;2022-11-04T15:14:24;3.10;;;0.80;;
46080;SDS011;31821;51.880;-0.518;2022-11-04T15:17:02;1.80;;;0.70;;
46080;SDS011;31821;51.880;-0.518;2022-11-04T15:19:34;2.85;;;1.00;;
46080;SDS011;31821;51.880;-0.518;2022-11-04T15:22:11;1.58;;;0.70;;
46080;SDS011;31821;51.880;-0.518;2022-11-04T15:24:41;3.33;;;0.80;;
46080;SDS011;31821;51.880;-0.518;2022-11-04T15:27:22;1.52;;;0.68;;
46080;SDS011;31821;51.880;-0.518;2022-11-04T15:29:58;2.88;;;0.60;;
46080;SDS011;31821;51.880;-0.518;2022-11-04T15:32:38;2.25;;;0.70;;
46080;SDS011;31821;51.880;-0.518;2022-11-04T15:35:17;1.42;;;0.63;;
46080;SDS011;31821;51.880;-0.518;2022-11-04T15:37:43;3.60;;;0.73;;
46080;SDS011;31821;51.880;-0.518;2022-11-04T15:40:12;6.30;;;1.30;;
46080;SDS011;31821;51.880;-0.518;2022-11-04T15:42:42;3.67;;;1.40;;
46080;SDS011;31821;51.880;-0.518;2022-11-04T15:51:24;3.55;;;1.33;;
46080;SDS011;31821;51.880;-0.518;2022-11-04T15:54:15;4.00;;;1.27;;
46080;SDS011;31821;51.880;-0.518;2022-11-04T15:56:55;2.75;;;1.30;;
46080;SDS011;31821;51.880;-0.518;2022-11-04T15:59:36;2.47;;;0.98;;
46080;SDS011;31821;51.880;-0.518;2022-11-04T16:02:04;3.03;;;0.93;;
46080;SDS011;31821;51.880;-0.518;2022-11-04T16:04:43;3.60;;;0.98;;
46080;SDS011;31821;51.880;-0.518;2022-11-04T16:09:47;2.28;;;0.82;;
46080;SDS011;31821;51.880;-0.518;2022-11-04T16:12:33;2.15;;;0.90;;
46080;SDS011;31821;51.880;-0.518;2022-11-04T16:15:02;3.50;;;0.80;;
46080;SDS011;31821;51.880;-0.518;2022-11-04T16:18:18;2.58;;;1.20;;
46080;SDS011;31821;51.880;-0.518;2022-11-04T16:20:53;3.97;;;1.10;;
46080;SDS011;31821;51.880;-0.518;2022-11-04T16:23:30;2.60;;;1.00;;
46080;SDS011;31821;51.880;-0.518;2022-11-04T16:26:02;2.78;;;1.13;;
46080;SDS011;31821;51.880;-0.518;2022-11-04T16:28:34;4.05;;;1.27;;
46080;SDS011;31821;51.880;-0.518;2022-11-04T16:31:03;3.53;;;1.15;;
46080;SDS011;31821;51.880;-0.518;2022-11-04T16:33:33;3.08;;;1.60;;
46080;SDS011;31821;51.880;-0.518;2022-11-04T16:36:08;4.00;;;1.25;;
46080;SDS011;31821;51.880;-0.518;2022-11-04T16:38:58;3.53;;;2.00;;
46080;SDS011;31821;51.880;-0.518;2022-11-04T16:53:39;3.72;;;1.50;;
46080;SDS011;31821;51.880;-0.518;2022-11-04T16:56:07;6.22;;;1.70;;
46080;SDS011;31821;51.880;-0.518;2022-11-04T16:58:40;5.72;;;1.88;;
46080;SDS011;31821;51.880;-0.518;2022-11-04T17:01:34;4.47;;;1.80;;
46080;SDS011;31821;51.880;-0.518;2022-11-04T17:04:05;6.07;;;1.92;;
46080;SDS011;31821;51.880;-0.518;2022-11-04T17:09:30;6.13;;;2.63;;
46080;SDS011;31821;51.880;-0.518;2022-11-04T17:12:35;6.68;;;2.83;;
46080;SDS011;31821;51.880;-0.518;2022-11-04T17:15:06;7.10;;;3.20;;
46080;SDS011;31821;51.880;-0.518;2022-11-04T17:23:23;8.52;;;2.58;;
